createdAt,value
2022-07-30T00:01:53.479Z,100838.44
2022-07-30T00:04:20.610Z,100844.19
2022-07-30T00:06:47.607Z,100835.53
2022-07-30T00:09:14.477Z,100845.53
2022-07-30T00:11:41.693Z,100846.34
2022-07-30T00:14:09.151Z,100850.63
2022-07-30T00:16:36.677Z,100845.97
2022-07-30T00:19:04.016Z,100842.16
2022-07-30T00:21:35.952Z,100842.81
2022-07-30T00:24:07.177Z,100842.59
2022-07-30T00:26:34.301Z,100833.75
2022-07-30T00:29:01.925Z,100832.06
2022-07-30T00:31:28.750Z,100833.56
2022-07-30T00:33:55.756Z,100828.75
2022-07-30T00:36:22.979Z,100826.22
2022-07-30T00:38:50.391Z,100820.13
2022-07-30T00:41:17.346Z,100827.13
2022-07-30T00:43:45.636Z,100818.22
2022-07-30T00:46:12.772Z,100818.91
2022-07-30T00:48:39.697Z,100817.19
2022-07-30T00:51:07.038Z,100817.88
2022-07-30T00:53:34.919Z,100814.88
2022-07-30T00:56:03.172Z,100816.97
2022-07-30T00:58:30.155Z,100821.25
2022-07-30T01:00:57.166Z,100821.66
2022-07-30T01:03:24.454Z,100821.47
2022-07-30T01:05:51.653Z,100821.25
2022-07-30T01:08:18.898Z,100825.44
2022-07-30T01:10:45.780Z,100820.63
2022-07-30T01:13:13.426Z,100812.16
2022-07-30T01:15:40.549Z,100810.47
2022-07-30T01:18:11.692Z,100801.41
2022-07-30T01:20:52.392Z,100803.09
2022-07-30T01:23:36.940Z,100803.75
2022-07-30T01:26:18.716Z,100802.31
2022-07-30T01:28:52.800Z,100797.00
2022-07-30T01:31:22.726Z,100797.88
2022-07-30T01:33:50.645Z,100793.91
2022-07-30T01:36:22.756Z,100790.75
2022-07-30T01:38:51.552Z,100784.44
2022-07-30T01:41:19.769Z,100789.72
2022-07-30T01:43:47.693Z,100774.97
2022-07-30T01:46:17.913Z,100770.31
2022-07-30T01:48:46.263Z,100767.56
2022-07-30T01:51:14.036Z,100774.97
2022-07-30T01:53:42.834Z,100776.19
2022-07-30T01:56:16.922Z,100772.00
2022-07-30T01:58:47.367Z,100774.13
2022-07-30T02:01:14.489Z,100774.97
2022-07-30T02:03:42.800Z,100775.16
2022-07-30T02:06:23.885Z,100773.25
2022-07-30T02:08:58.718Z,100775.41
2022-07-30T02:11:44.449Z,100772.03
2022-07-30T02:14:27.080Z,100778.81
2022-07-30T02:17:02.422Z,100780.50
2022-07-30T02:19:43.271Z,100777.34
2022-07-30T02:22:16.932Z,100779.66
2022-07-30T02:24:48.795Z,100783.44
2022-07-30T02:27:23.252Z,100782.22
2022-07-30T02:29:53.143Z,100782.22
2022-07-30T02:32:23.893Z,100777.34
2022-07-30T02:35:10.541Z,100771.69
2022-07-30T02:37:43.723Z,100773.38
2022-07-30T02:40:16.454Z,100771.69
2022-07-30T02:42:49.028Z,100777.19
2022-07-30T02:45:20.840Z,100769.78
2022-07-30T02:47:56.669Z,100764.50
2022-07-30T02:50:25.324Z,100758.41
2022-07-30T02:52:54.830Z,100766.03
2022-07-30T02:55:23.295Z,100760.53
2022-07-30T02:57:52.596Z,100757.41
2022-07-30T03:00:21.816Z,100751.06
2022-07-30T03:02:49.574Z,100755.31
2022-07-30T03:05:16.618Z,100749.59
2022-07-30T03:07:44.624Z,100743.94
2022-07-30T03:10:13.172Z,100737.59
2022-07-30T03:12:44.956Z,100749.66
2022-07-30T03:15:12.207Z,100750.88
2022-07-30T03:17:44.424Z,100743.09
2022-07-30T03:20:16.307Z,100744.78
2022-07-30T03:22:47.693Z,100747.53
2022-07-30T03:25:17.254Z,100752.41
2022-07-30T03:27:45.349Z,100744.38
2022-07-30T03:30:13.020Z,100747.13
2022-07-30T03:32:40.739Z,100738.28
2022-07-30T03:35:16.928Z,100753.69
2022-07-30T03:37:46.310Z,100755.56
2022-07-30T03:40:15.183Z,100751.78
2022-07-30T03:42:42.600Z,100762.97
2022-07-30T03:45:11.044Z,100755.56
2022-07-30T03:47:40.629Z,100745.66
2022-07-30T03:50:10.335Z,100744.38
2022-07-30T03:52:40.993Z,100736.97
2022-07-30T03:55:11.280Z,100743.16
2022-07-30T03:57:38.819Z,100739.09
2022-07-30T04:00:15.029Z,100722.03
2022-07-30T04:02:44.424Z,100725.00
2022-07-30T04:05:16.803Z,100723.81
2022-07-30T04:07:45.203Z,100729.84
2022-07-30T04:10:14.111Z,100729.03
2022-07-30T04:12:41.008Z,100738.94
2022-07-30T04:16:38.156Z,100729.84
2022-07-30T04:18:02.774Z,100727.19
2022-07-30T04:20:42.325Z,100725.03
2022-07-30T04:23:11.239Z,100730.94
2022-07-30T04:25:40.456Z,100732.19
2022-07-30T04:28:07.605Z,100737.69
2022-07-30T04:30:35.073Z,100729.06
2022-07-30T04:33:04.860Z,100729.91
2022-07-30T04:35:50.592Z,100728.84
2022-07-30T04:38:19.936Z,100725.47
2022-07-30T04:40:47.871Z,100727.19
2022-07-30T04:43:15.860Z,100730.13
2022-07-30T04:45:43.033Z,100725.06
2022-07-30T04:48:09.856Z,100716.00
2022-07-30T04:50:41.967Z,100722.53
2022-07-30T04:53:10.094Z,100722.19
2022-07-30T04:55:43.701Z,100722.53
2022-07-30T04:58:12.585Z,100723.41
2022-07-30T05:00:41.517Z,100724.03
2022-07-30T05:03:12.900Z,100719.59
2022-07-30T05:05:41.527Z,100719.59
2022-07-30T05:08:09.405Z,100719.38
2022-07-30T05:10:38.306Z,100718.47
2022-07-30T05:13:05.301Z,100723.75
2022-07-30T05:15:36.960Z,100719.56
2022-07-30T05:18:04.818Z,100719.56
2022-07-30T05:20:31.955Z,100723.53
2022-07-30T05:22:58.852Z,100724.59
2022-07-30T05:25:25.969Z,100720.38
2022-07-30T05:27:53.318Z,100729.22
2022-07-30T05:30:25.199Z,100727.50
2022-07-30T05:32:54.686Z,100733.84
2022-07-30T05:35:23.526Z,100728.75
2022-07-30T05:37:50.359Z,100735.72
2022-07-30T05:40:17.380Z,100726.63
2022-07-30T05:42:44.186Z,100726.63
2022-07-30T05:45:11.443Z,100728.75
2022-07-30T05:47:38.301Z,100733.00
2022-07-30T05:50:05.779Z,100733.22
2022-07-30T05:52:33.484Z,100735.13
2022-07-30T05:55:00.398Z,100737.66
2022-07-30T05:57:27.442Z,100733.84
2022-07-30T05:59:54.300Z,100736.38
2022-07-30T06:02:24.474Z,100725.16
2022-07-30T06:04:51.910Z,100724.13
2022-07-30T06:07:18.762Z,100723.03
2022-07-30T06:09:45.556Z,100721.13
2022-07-30T06:12:12.362Z,100720.53
2022-07-30T06:14:39.182Z,100727.69
2022-07-30T06:17:06.354Z,100731.06
2022-07-30T06:19:33.246Z,100735.03
2022-07-30T06:22:06.419Z,100732.47
2022-07-30T06:24:34.521Z,100737.28
2022-07-30T06:27:01.784Z,100741.31
2022-07-30T06:29:29.242Z,100740.44
2022-07-30T06:31:56.263Z,100742.53
2022-07-30T06:34:23.218Z,100734.03
2022-07-30T06:36:50.324Z,100726.88
2022-07-30T06:39:53.791Z,100741.19
2022-07-30T06:42:04.637Z,100746.00
2022-07-30T06:44:31.507Z,100740.06
2022-07-30T06:47:00.881Z,100745.94
2022-07-30T06:49:33.098Z,100751.97
2022-07-30T06:52:00.866Z,100747.75
2022-07-30T06:54:28.087Z,100747.53
2022-07-30T06:56:55.230Z,100738.38
2022-07-30T06:59:22.833Z,100740.91
2022-07-30T07:01:50.654Z,100735.75
2022-07-30T07:04:17.628Z,100734.00
2022-07-30T07:06:44.452Z,100734.22
2022-07-30T07:09:11.351Z,100736.91
2022-07-30T07:11:38.488Z,100739.88
2022-07-30T07:14:05.485Z,100731.78
2022-07-30T07:16:32.514Z,100725.06
2022-07-30T07:18:59.368Z,100720.34
2022-07-30T07:21:26.316Z,100719.88
2022-07-30T07:23:53.429Z,100712.88
2022-07-30T07:26:20.300Z,100716.75
2022-07-30T07:28:47.123Z,100709.38
2022-07-30T07:32:02.589Z,100712.84
2022-07-30T07:34:01.051Z,100719.13
2022-07-30T07:36:28.625Z,100718.66
2022-07-30T07:38:55.766Z,100720.72
2022-07-30T07:41:23.105Z,100716.41
2022-07-30T07:43:49.935Z,100703.66
2022-07-30T07:46:34.095Z,100715.94
2022-07-30T07:49:01.821Z,100727.66
2022-07-30T07:51:47.522Z,100716.19
2022-07-30T07:54:21.478Z,100717.28
2022-07-30T07:56:52.931Z,100711.47
2022-07-30T07:59:20.269Z,100709.34
2022-07-30T08:01:47.379Z,100715.59
2022-07-30T08:04:17.770Z,100709.38
2022-07-30T08:06:44.613Z,100716.81
2022-07-30T08:09:11.454Z,100713.16
2022-07-30T08:11:38.633Z,100711.97
2022-07-30T08:14:05.424Z,100709.09
2022-07-30T08:16:32.323Z,100708.88
2022-07-30T08:18:59.268Z,100718.00
2022-07-30T08:21:26.141Z,100712.38
2022-07-30T08:23:52.952Z,100706.88
2022-07-30T08:26:19.993Z,100704.72
2022-07-30T08:28:46.975Z,100712.03
2022-07-30T08:31:13.938Z,100714.06
2022-07-30T08:33:40.736Z,100712.94
2022-07-30T08:36:09.014Z,100705.50
2022-07-30T08:38:38.343Z,100707.06
2022-07-30T08:41:05.687Z,100697.91
2022-07-30T08:43:33.432Z,100703.91
2022-07-30T08:46:01.344Z,100714.00
2022-07-30T08:48:29.772Z,100709.22
2022-07-30T08:50:57.225Z,100719.16
2022-07-30T08:53:25.482Z,100728.53
2022-07-30T08:55:56.838Z,100726.25
2022-07-30T08:58:31.830Z,100723.25
2022-07-30T09:00:58.724Z,100736.06
2022-07-30T09:03:25.554Z,100722.88
2022-07-30T09:05:52.458Z,100705.88
2022-07-30T09:08:19.911Z,100713.03
2022-07-30T09:10:52.708Z,100720.00
2022-07-30T09:13:41.899Z,100721.03
2022-07-30T09:16:19.746Z,100725.22
2022-07-30T09:18:46.542Z,100726.38
2022-07-30T09:21:26.413Z,100719.63
2022-07-30T09:24:01.586Z,100720.63
2022-07-30T09:26:29.453Z,100720.09
2022-07-30T09:29:15.601Z,100725.78
2022-07-30T09:32:00.728Z,100722.22
2022-07-30T09:34:37.456Z,100735.91
2022-07-30T09:37:24.523Z,100732.19
2022-07-30T09:39:58.917Z,100733.38
2022-07-30T09:42:29.018Z,100735.53
2022-07-30T09:45:11.363Z,100729.53
2022-07-30T09:47:41.853Z,100731.91
2022-07-30T09:50:29.305Z,100730.09
2022-07-30T09:53:09.325Z,100735.59
2022-07-30T09:55:41.106Z,100737.88
2022-07-30T09:58:08.720Z,100739.13
2022-07-30T10:00:37.709Z,100736.13
2022-07-30T10:03:41.613Z,100739.47
2022-07-30T10:06:11.664Z,100737.22
2022-07-30T10:08:51.956Z,100729.00
2022-07-30T10:11:24.032Z,100730.91
2022-07-30T10:14:03.208Z,100736.66
2022-07-30T10:16:30.672Z,100726.66
2022-07-30T10:19:00.279Z,100721.84
2022-07-30T10:21:28.606Z,100731.44
2022-07-30T10:23:59.828Z,100737.47
2022-07-30T10:26:28.699Z,100740.09
2022-07-30T10:28:56.095Z,100731.66
2022-07-30T10:31:49.219Z,100741.88
2022-07-30T10:34:11.721Z,100736.00
2022-07-30T10:36:45.172Z,100743.00
2022-07-30T10:39:19.326Z,100732.72
2022-07-30T10:42:51.145Z,100727.56
2022-07-30T10:46:09.281Z,100734.31
2022-07-30T10:48:47.177Z,100731.84
2022-07-30T10:51:25.194Z,100732.47
2022-07-30T10:54:01.683Z,100725.75
2022-07-30T10:56:28.885Z,100722.25
2022-07-30T10:59:08.389Z,100718.22
2022-07-30T11:01:51.684Z,100722.03
2022-07-30T11:04:29.871Z,100727.19
2022-07-30T11:07:23.628Z,100729.78
2022-07-30T11:10:08.833Z,100718.63
2022-07-30T11:12:42.268Z,100722.19
2022-07-30T11:15:18.607Z,100722.31
2022-07-30T11:18:02.852Z,100720.97
2022-07-30T11:20:35.273Z,100722.72
2022-07-30T11:23:20.464Z,100720.69
2022-07-30T11:25:51.171Z,100723.53
2022-07-30T11:28:38.181Z,100723.53
2022-07-30T11:31:49.871Z,100717.84
2022-07-30T11:34:18.975Z,100719.38
2022-07-30T11:37:18.390Z,100716.53
2022-07-30T11:39:55.041Z,100714.84
2022-07-30T11:42:27.339Z,100720.34
2022-07-30T11:45:16.859Z,100730.09
2022-07-30T11:47:53.616Z,100726.41
2022-07-30T11:50:23.640Z,100730.72
2022-07-30T11:52:53.730Z,100731.81
2022-07-30T11:55:42.620Z,100738.22
2022-07-30T11:58:24.640Z,100732.56
2022-07-30T12:00:52.900Z,100728.72
2022-07-30T12:03:23.288Z,100731.59
2022-07-30T12:05:52.591Z,100725.97
2022-07-30T12:08:35.092Z,100739.19
2022-07-30T12:11:03.638Z,100739.78
2022-07-30T12:13:45.208Z,100735.84
2022-07-30T12:16:17.884Z,100734.75
2022-07-30T12:18:46.813Z,100731.66
2022-07-30T12:21:17.754Z,100734.75
2022-07-30T12:23:56.625Z,100730.91
2022-07-30T12:26:34.782Z,100730.75
2022-07-30T12:29:05.358Z,100743.22
2022-07-30T12:31:34.002Z,100724.91
2022-07-30T12:34:01.236Z,100728.50
2022-07-30T12:36:35.964Z,100721.47
2022-07-30T12:39:06.796Z,100725.06
2022-07-30T12:41:48.898Z,100721.72
2022-07-30T12:44:51.457Z,100720.53
2022-07-30T12:47:20.446Z,100729.91
2022-07-30T12:49:49.637Z,100721.03
2022-07-30T12:52:36.095Z,100716.25
2022-07-30T12:55:09.132Z,100721.38
2022-07-30T12:58:01.703Z,100714.84
2022-07-30T13:00:52.410Z,100704.47
2022-07-30T13:03:24.116Z,100703.53
2022-07-30T13:05:55.546Z,100718.44
2022-07-30T13:08:52.684Z,100715.75
2022-07-30T13:11:23.258Z,100726.09
2022-07-30T13:13:51.136Z,100719.34
2022-07-30T13:16:19.828Z,100717.00
2022-07-30T13:18:47.122Z,100715.00
2022-07-30T13:21:14.174Z,100715.50
2022-07-30T13:23:41.938Z,100711.03
2022-07-30T13:26:11.029Z,100711.13
2022-07-30T13:28:38.589Z,100716.47
2022-07-30T13:31:07.917Z,100717.31
2022-07-30T13:33:38.827Z,100715.56
2022-07-30T13:36:09.219Z,100717.09
2022-07-30T13:38:36.383Z,100699.34
2022-07-30T13:41:05.096Z,100708.81
2022-07-30T13:43:33.988Z,100709.72
2022-07-30T13:46:03.173Z,100713.78
2022-07-30T13:48:30.657Z,100713.25
2022-07-30T13:50:57.647Z,100707.47
2022-07-30T13:53:24.468Z,100714.91
2022-07-30T13:55:51.340Z,100708.94
2022-07-30T13:58:18.353Z,100704.28
2022-07-30T14:00:47.869Z,100704.84
2022-07-30T14:03:16.133Z,100712.59
2022-07-30T14:05:43.909Z,100715.69
2022-07-30T14:08:12.265Z,100707.69
2022-07-30T14:10:40.493Z,100721.47
2022-07-30T14:13:20.752Z,100723.19
2022-07-30T14:15:48.660Z,100731.94
2022-07-30T14:18:15.552Z,100726.06
2022-07-30T14:20:45.604Z,100725.91
2022-07-30T14:23:16.432Z,100723.91
2022-07-30T14:25:44.385Z,100723.91
2022-07-30T14:28:11.301Z,100721.72
2022-07-30T14:30:38.262Z,100720.69
2022-07-30T14:33:05.346Z,100719.19
2022-07-30T14:35:32.446Z,100720.53
2022-07-30T14:37:59.404Z,100718.53
2022-07-30T14:40:26.345Z,100720.88
2022-07-30T14:42:56.165Z,100712.59
2022-07-30T14:45:23.468Z,100710.09
2022-07-30T14:47:50.300Z,100705.38
2022-07-30T14:50:17.219Z,100708.28
2022-07-30T14:52:45.299Z,100709.06
2022-07-30T14:55:12.104Z,100705.72
2022-07-30T14:57:38.992Z,100710.78
2022-07-30T15:00:10.929Z,100708.94
2022-07-30T15:02:38.413Z,100710.75
2022-07-30T15:05:06.188Z,100705.22
2022-07-30T15:07:34.871Z,100713.44
2022-07-30T15:10:02.708Z,100714.28
2022-07-30T15:12:29.945Z,100705.66
2022-07-30T15:14:56.869Z,100707.41
2022-07-30T15:17:24.589Z,100706.09
2022-07-30T15:19:51.656Z,100707.44
2022-07-30T15:22:20.371Z,100718.59
2022-07-30T15:24:47.934Z,100714.91
2022-07-30T15:27:14.872Z,100717.09
2022-07-30T15:29:42.059Z,100710.16
2022-07-30T15:32:09.126Z,100702.63
2022-07-30T15:34:36.068Z,100702.63
2022-07-30T15:37:05.608Z,100700.00
2022-07-30T15:39:34.303Z,100699.09
2022-07-30T15:42:02.851Z,100699.06
2022-07-30T15:44:30.462Z,100703.09
2022-07-30T15:46:57.737Z,100704.34
2022-07-30T15:49:24.747Z,100703.78
2022-07-30T15:51:52.089Z,100698.09
2022-07-30T15:54:23.222Z,100693.25
2022-07-30T15:56:52.024Z,100691.69
2022-07-30T15:59:18.866Z,100694.91
2022-07-30T16:01:45.834Z,100698.31
2022-07-30T16:04:19.725Z,100695.22
2022-07-30T16:06:48.580Z,100696.38
2022-07-30T16:09:16.592Z,100696.38
2022-07-30T16:11:43.590Z,100696.31
2022-07-30T16:14:11.159Z,100686.16
2022-07-30T16:16:38.318Z,100679.63
2022-07-30T16:19:05.226Z,100680.25
2022-07-30T16:21:32.103Z,100677.56
2022-07-30T16:23:59.484Z,100687.22
2022-07-30T16:26:27.704Z,100671.75
2022-07-30T16:28:54.741Z,100683.84
2022-07-30T16:31:21.551Z,100679.31
2022-07-30T16:33:48.435Z,100683.38
2022-07-30T16:36:15.555Z,100680.66
2022-07-30T16:38:42.484Z,100669.56
2022-07-30T16:41:13.589Z,100677.75
2022-07-30T16:43:41.158Z,100670.28
2022-07-30T16:46:08.470Z,100667.78
2022-07-30T16:48:35.388Z,100665.66
2022-07-30T16:51:02.748Z,100661.28
2022-07-30T16:53:29.855Z,100669.47
2022-07-30T16:55:59.501Z,100658.34
2022-07-30T16:58:28.337Z,100670.66
2022-07-30T17:00:58.699Z,100663.63
2022-07-30T17:03:26.388Z,100659.44
2022-07-30T17:05:53.848Z,100658.53
2022-07-30T17:08:24.555Z,100658.53
2022-07-30T17:10:53.322Z,100667.47
2022-07-30T17:13:20.827Z,100673.00
2022-07-30T17:15:48.099Z,100666.03
2022-07-30T17:18:16.002Z,100663.97
2022-07-30T17:20:43.672Z,100657.09
2022-07-30T17:23:10.913Z,100658.63
2022-07-30T17:25:37.867Z,100656.25
2022-07-30T17:28:05.249Z,100641.69
2022-07-30T17:30:32.136Z,100638.75
2022-07-30T17:32:58.999Z,100635.22
2022-07-30T17:35:26.489Z,100651.88
2022-07-30T17:37:53.545Z,100657.84
2022-07-30T17:40:30.381Z,100653.38
2022-07-30T17:43:04.209Z,100658.28
2022-07-30T17:45:33.777Z,100660.03
2022-07-30T17:48:01.913Z,100656.09
2022-07-30T17:50:30.489Z,100660.63
2022-07-30T17:52:57.973Z,100657.16
2022-07-30T17:55:26.400Z,100659.69
2022-07-30T17:57:53.215Z,100668.03
2022-07-30T18:00:21.344Z,100671.16
2022-07-30T18:02:48.585Z,100668.91
2022-07-30T18:05:15.735Z,100682.03
2022-07-30T18:07:43.982Z,100679.09
2022-07-30T18:10:12.285Z,100677.22
2022-07-30T18:12:39.751Z,100685.06
2022-07-30T18:15:17.421Z,100670.81
2022-07-30T18:17:45.534Z,100672.13
2022-07-30T18:20:13.412Z,100665.19
2022-07-30T18:22:40.674Z,100668.34
2022-07-30T18:25:08.213Z,100668.22
2022-07-30T18:27:45.617Z,100665.56
2022-07-30T18:30:13.197Z,100660.06
2022-07-30T18:32:39.987Z,100671.09
2022-07-30T18:35:12.060Z,100674.94
2022-07-30T18:37:41.730Z,100670.25
2022-07-30T18:40:10.577Z,100671.94
2022-07-30T18:42:37.466Z,100668.09
2022-07-30T18:45:05.893Z,100669.44
2022-07-30T18:47:32.890Z,100670.25
2022-07-30T18:49:59.792Z,100668.81
2022-07-30T18:52:26.759Z,100673.84
2022-07-30T18:54:53.633Z,100678.91
2022-07-30T18:57:20.561Z,100666.41
2022-07-30T18:59:47.492Z,100669.75
2022-07-30T19:02:14.778Z,100678.03
2022-07-30T19:04:41.656Z,100680.94
2022-07-30T19:07:08.600Z,100676.06
2022-07-30T19:09:35.664Z,100676.88
2022-07-30T19:12:03.692Z,100679.28
2022-07-30T19:14:31.039Z,100669.22
2022-07-30T19:16:59.482Z,100680.13
2022-07-30T19:19:27.842Z,100668.31
2022-07-30T19:21:55.088Z,100669.13
2022-07-30T19:24:22.004Z,100670.47
2022-07-30T19:26:49.496Z,100666.16
2022-07-30T19:29:16.520Z,100668.78
2022-07-30T19:31:43.360Z,100668.41
2022-07-30T19:34:11.262Z,100664.72
2022-07-30T19:36:38.588Z,100668.44
2022-07-30T19:39:07.345Z,100675.88
2022-07-30T19:41:40.789Z,100672.38
2022-07-30T19:44:09.564Z,100669.41
2022-07-30T19:46:37.515Z,100670.59
2022-07-30T19:49:06.810Z,100670.59
2022-07-30T19:52:07.398Z,100677.91
2022-07-30T19:54:20.978Z,100679.06
2022-07-30T19:56:48.681Z,100679.88
2022-07-30T19:59:15.901Z,100675.72
2022-07-30T20:01:44.337Z,100675.25
2022-07-30T20:04:14.967Z,100676.16
2022-07-30T20:06:46.176Z,100686.25
2022-07-30T20:09:15.022Z,100684.44
2022-07-30T20:11:43.480Z,100691.38
2022-07-30T20:14:10.583Z,100689.34
2022-07-30T20:16:37.988Z,100700.81
2022-07-30T20:19:05.669Z,100708.97
2022-07-30T20:21:57.006Z,100703.94
2022-07-30T20:24:20.949Z,100706.53
2022-07-30T20:26:47.969Z,100708.94
2022-07-30T20:29:19.246Z,100711.81
2022-07-30T20:31:47.123Z,100708.44
2022-07-30T20:34:19.681Z,100705.94
2022-07-30T20:36:47.948Z,100713.34
2022-07-30T20:39:18.304Z,100719.16
2022-07-30T20:41:45.346Z,100716.19
2022-07-30T20:44:23.006Z,100716.66
2022-07-30T20:46:50.806Z,100708.66
2022-07-30T20:49:24.061Z,100710.81
2022-07-30T20:51:55.769Z,100705.53
2022-07-30T20:54:22.741Z,100709.56
2022-07-30T20:56:51.078Z,100706.81
2022-07-30T20:59:19.589Z,100708.38
2022-07-30T21:01:51.017Z,100697.34
2022-07-30T21:04:25.565Z,100694.47
2022-07-30T21:06:53.407Z,100705.47
2022-07-30T21:09:20.495Z,100704.84
2022-07-30T21:11:50.629Z,100703.19
2022-07-30T21:14:20.157Z,100693.75
2022-07-30T21:16:47.636Z,100693.38
2022-07-30T21:19:16.633Z,100687.84
2022-07-30T21:21:48.738Z,100688.31
2022-07-30T21:24:19.448Z,100690.22
2022-07-30T21:26:51.423Z,100693.81
2022-07-30T21:29:19.500Z,100682.94
2022-07-30T21:32:00.689Z,100684.59
2022-07-30T21:34:36.032Z,100681.22
2022-07-30T21:37:09.180Z,100677.84
2022-07-30T21:39:40.067Z,100679.63
2022-07-30T21:42:08.439Z,100668.84
2022-07-30T21:44:37.562Z,100668.22
2022-07-30T21:47:08.395Z,100654.94
2022-07-30T21:49:39.800Z,100660.31
2022-07-30T21:52:08.860Z,100652.75
2022-07-30T21:54:45.587Z,100653.84
2022-07-30T21:57:16.732Z,100658.72
2022-07-30T21:59:55.037Z,100649.63
2022-07-30T22:02:23.826Z,100648.56
2022-07-30T22:04:51.828Z,100651.25
2022-07-30T22:07:18.704Z,100650.41
2022-07-30T22:09:48.943Z,100655.44
2022-07-30T22:12:18.366Z,100657.13
2022-07-30T22:14:48.709Z,100652.09
2022-07-30T22:17:23.434Z,100634.16
2022-07-30T22:19:52.056Z,100636.91
2022-07-30T22:22:27.288Z,100633.09
2022-07-30T22:24:57.152Z,100628.50
2022-07-30T22:27:25.400Z,100628.06
2022-07-30T22:29:55.865Z,100619.56
2022-07-30T22:32:24.192Z,100623.03
2022-07-30T22:34:51.952Z,100627.19
2022-07-30T22:37:21.555Z,100622.19
2022-07-30T22:39:51.760Z,100623.09
2022-07-30T22:42:24.283Z,100624.44
2022-07-30T22:44:53.029Z,100617.53
2022-07-30T22:47:50.286Z,100621.59
2022-07-30T22:50:09.098Z,100617.16
2022-07-30T22:52:40.257Z,100610.59
2022-07-30T22:55:21.941Z,100604.47
2022-07-30T22:58:07.689Z,100603.19
2022-07-30T23:00:37.022Z,100610.59
2022-07-30T23:03:07.716Z,100608.91
2022-07-30T23:05:35.733Z,100618.19
2022-07-30T23:08:04.003Z,100617.16
2022-07-30T23:10:30.914Z,100609.13
2022-07-30T23:12:59.022Z,100618.84
2022-07-30T23:15:26.292Z,100602.78
2022-07-30T23:17:53.334Z,100603.19
2022-07-30T23:20:21.788Z,100605.09
2022-07-30T23:22:49.833Z,100609.50
2022-07-30T23:25:17.505Z,100609.94
2022-07-30T23:27:46.873Z,100601.25
2022-07-30T23:30:14.543Z,100594.09
2022-07-30T23:32:42.245Z,100589.66
2022-07-30T23:35:10.398Z,100582.47
2022-07-30T23:37:48.750Z,100587.13
2022-07-30T23:40:19.286Z,100575.31
2022-07-30T23:42:47.917Z,100585.84
2022-07-30T23:45:14.909Z,100581.25
2022-07-30T23:48:01.966Z,100578.53
2022-07-30T23:50:29.481Z,100570.50
2022-07-30T23:52:56.282Z,100572.41
2022-07-30T23:55:23.407Z,100573.03
2022-07-30T23:57:50.429Z,100572.41
